^^
Station Historical Data
Daily Summary for November 09, 2019 Units:  Both    English   Metric
« Previous Day
Next Day »
Daily Weekly Monthly Yearly Custom
  High: Low: Average:
Temperature: 46 °F /  7.8 °C 21.5 °F /  -5.8 °C 35.5 °F /  1.9 °C
Dew Point: 37.7 °F /  3.2 °C 14.8 °F /  -9.6 °C 31 °F /  -0.6 °C
Humidity: 92% 72% 84%
Wind Speed: 24mph /  38.6km/h - 6.8mph /  10.9km/h
Wind Gust: 28mph /  45.1km/h - -
Wind- - SW
Pressure: 30.31 in /  1026.3 hPa 29.96 in /  1014.4 hPa -
Precipitation: 0 in /  0 mm    
Historical Graphs
 
 
Tabular Data for November 09, 2019
Time Temperature Dew Point Pressure Wind Wind Speed Wind Gust Humidity Rainfall Rate (Hourly) solar Conditions
00:00 38.9 °F /  3.8 °C 32.3 °F /  0.2 °C 30.07in /  1018.2hPa NW 2mph /  3.2km/h 8mph /  12.9km/h 77% 0in /  0mm 0.00 W/m2
00:05 38.9 °F /  3.8 °C 32.3 °F /  0.2 °C 30.07in /  1018.2hPa NW 2mph /  3.2km/h 8mph /  12.9km/h 77% 0in /  0mm 0.00 W/m2
00:10 39 °F /  3.9 °C 32.4 °F /  0.2 °C 30.07in /  1018.2hPa WNW 4mph /  6.4km/h 8mph /  12.9km/h 77% 0in /  0mm 0.00 W/m2
00:15 39 °F /  3.9 °C 32.4 °F /  0.2 °C 30.08in /  1018.5hPa WNW 1mph /  1.6km/h 8mph /  12.9km/h 77% 0in /  0mm 0.00 W/m2
00:20 39.2 °F /  4 °C 32.6 °F /  0.3 °C 30.07in /  1018.2hPa Calm   3mph /  4.8km/h 77% 0in /  0mm 0.00 W/m2
00:25 39.3 °F /  4.1 °C 32.7 °F /  0.4 °C 30.07in /  1018.2hPa NNE 3mph /  4.8km/h 3mph /  4.8km/h 77% 0in /  0mm 0.00 W/m2
00:30 39.1 °F /  3.9 °C 32.5 °F /  0.3 °C 30.07in /  1018.2hPa NNE 4mph /  6.4km/h 6mph /  9.7km/h 77% 0in /  0mm 0.00 W/m2
00:35 38.8 °F /  3.8 °C 32.2 °F /  0.1 °C 30.07in /  1018.2hPa NNE 4mph /  6.4km/h 7mph /  11.3km/h 77% 0in /  0mm 0.00 W/m2
00:40 38.4 °F /  3.6 °C 31.8 °F /  -0.1 °C 30.06in /  1017.8hPa NNE 7mph /  11.3km/h 9mph /  14.5km/h 77% 0in /  0mm 0.00 W/m2
00:45 38.3 °F /  3.5 °C 32.4 °F /  0.2 °C 30.07in /  1018.2hPa NNE 1mph /  1.6km/h 9mph /  14.5km/h 79% 0in /  0mm 0.00 W/m2
00:50 38.3 °F /  3.5 °C 32 °F /  0 °C 30.07in /  1018.2hPa NE 3mph /  4.8km/h 9mph /  14.5km/h 78% 0in /  0mm 0.00 W/m2
00:55 38.2 °F /  3.4 °C 32.3 °F /  0.2 °C 30.07in /  1018.2hPa NNE 4mph /  6.4km/h 9mph /  14.5km/h 79% 0in /  0mm 0.00 W/m2
01:00 38.1 °F /  3.4 °C 32.2 °F /  0.1 °C 30.07in /  1018.2hPa NNW 9mph /  14.5km/h 11mph /  17.7km/h 79% 0in /  0mm 0.00 W/m2
01:05 38.1 °F /  3.4 °C 32.5 °F /  0.3 °C 30.06in /  1017.8hPa North 8mph /  12.9km/h 12mph /  19.3km/h 80% 0in /  0mm 0.00 W/m2
01:10 38.2 °F /  3.4 °C 32.6 °F /  0.3 °C 30.07in /  1018.2hPa NNW 5mph /  8km/h 12mph /  19.3km/h 80% 0in /  0mm 0.00 W/m2
01:15 38.3 °F /  3.5 °C 32.7 °F /  0.4 °C 30.07in /  1018.2hPa NNW 4mph /  6.4km/h 10mph /  16.1km/h 80% 0in /  0mm 0.00 W/m2
01:20 38.2 °F /  3.4 °C 32.6 °F /  0.3 °C 30.07in /  1018.2hPa NNW 2mph /  3.2km/h 10mph /  16.1km/h 80% 0in /  0mm 0.00 W/m2
01:25 38.3 °F /  3.5 °C 32.4 °F /  0.2 °C 30.07in /  1018.2hPa NNW 3mph /  4.8km/h 10mph /  16.1km/h 79% 0in /  0mm 0.00 W/m2
01:30 38.2 °F /  3.4 °C 32.3 °F /  0.2 °C 30.07in /  1018.2hPa NW 3mph /  4.8km/h 10mph /  16.1km/h 79% 0in /  0mm 0.00 W/m2
01:35 38 °F /  3.3 °C 32.1 °F /  0.1 °C 30.07in /  1018.2hPa WNW 4mph /  6.4km/h 5mph /  8km/h 79% 0in /  0mm 0.00 W/m2
01:40 37.8 °F /  3.2 °C 31.9 °F /  -0.1 °C 30.07in /  1018.2hPa West 3mph /  4.8km/h 5mph /  8km/h 79% 0in /  0mm 0.00 W/m2
01:45 37.3 °F /  2.9 °C 31.7 °F /  -0.2 °C 30.07in /  1018.2hPa West 3mph /  4.8km/h 6mph /  9.7km/h 80% 0in /  0mm 0.00 W/m2
01:50 37.1 °F /  2.8 °C 31.5 °F /  -0.3 °C 30.06in /  1017.8hPa WNW 4mph /  6.4km/h 6mph /  9.7km/h 80% 0in /  0mm 0.00 W/m2
01:55 37 °F /  2.8 °C 31.4 °F /  -0.3 °C 30.06in /  1017.8hPa NW 4mph /  6.4km/h 8mph /  12.9km/h 80% 0in /  0mm 0.00 W/m2
02:00 36.5 °F /  2.5 °C 31.2 °F /  -0.4 °C 30.05in /  1017.5hPa NW 7mph /  11.3km/h 8mph /  12.9km/h 81% 0in /  0mm 0.00 W/m2
02:05 36.5 °F /  2.5 °C 31.5 °F /  -0.3 °C 30.05in /  1017.5hPa WNW 4mph /  6.4km/h 8mph /  12.9km/h 82% 0in /  0mm 0.00 W/m2
02:10 36.2 °F /  2.3 °C 31.2 °F /  -0.4 °C 30.05in /  1017.5hPa WNW 2mph /  3.2km/h 8mph /  12.9km/h 82% 0in /  0mm 0.00 W/m2
02:15 35.9 °F /  2.2 °C 30.9 °F /  -0.6 °C 30.06in /  1017.8hPa WNW 3mph /  4.8km/h 5mph /  8km/h 82% 0in /  0mm 0.00 W/m2
02:20 35.7 °F /  2.1 °C 31 °F /  -0.6 °C 30.06in /  1017.8hPa WNW 2mph /  3.2km/h 4mph /  6.4km/h 83% 0in /  0mm 0.00 W/m2
02:25 35.6 °F /  2 °C 30.9 °F /  -0.6 °C 30.06in /  1017.8hPa NW 3mph /  4.8km/h 4mph /  6.4km/h 83% 0in /  0mm 0.00 W/m2
02:30 35.6 °F /  2 °C 31.2 °F /  -0.4 °C 30.07in /  1018.2hPa WNW 3mph /  4.8km/h 4mph /  6.4km/h 84% 0in /  0mm 0.00 W/m2
02:35 36 °F /  2.2 °C 31.6 °F /  -0.2 °C 30.07in /  1018.2hPa WNW 3mph /  4.8km/h 6mph /  9.7km/h 84% 0in /  0mm 0.00 W/m2
02:40 36.2 °F /  2.3 °C 31.8 °F /  -0.1 °C 30.06in /  1017.8hPa WNW 4mph /  6.4km/h 6mph /  9.7km/h 84% 0in /  0mm 0.00 W/m2
02:45 36.2 °F /  2.3 °C 31.5 °F /  -0.3 °C 30.06in /  1017.8hPa WNW 6mph /  9.7km/h 6mph /  9.7km/h 83% 0in /  0mm 0.00 W/m2
02:50 35.9 °F /  2.2 °C 31.2 °F /  -0.4 °C 30.05in /  1017.5hPa WNW 4mph /  6.4km/h 6mph /  9.7km/h 83% 0in /  0mm 0.00 W/m2
02:55 35.5 °F /  1.9 °C 32.6 °F /  0.3 °C 30.05in /  1017.5hPa West 4mph /  6.4km/h 7mph /  11.3km/h 89% 0in /  0mm 0.00 W/m2
03:00 35.3 °F /  1.8 °C 30.9 °F /  -0.6 °C 30.05in /  1017.5hPa West 3mph /  4.8km/h 7mph /  11.3km/h 84% 0in /  0mm 0.00 W/m2
03:05 35.1 °F /  1.7 °C 31 °F /  -0.6 °C 30.05in /  1017.5hPa West 3mph /  4.8km/h 6mph /  9.7km/h 85% 0in /  0mm 0.00 W/m2
03:10 34.9 °F /  1.6 °C 30.8 °F /  -0.7 °C 30.05in /  1017.5hPa West 2mph /  3.2km/h 6mph /  9.7km/h 85% 0in /  0mm 0.00 W/m2
03:15 34.9 °F /  1.6 °C 30.8 °F /  -0.7 °C 30.05in /  1017.5hPa West 2mph /  3.2km/h 5mph /  8km/h 85% 0in /  0mm 0.00 W/m2
03:20 34.8 °F /  1.6 °C 31 °F /  -0.6 °C 30.05in /  1017.5hPa WSW 2mph /  3.2km/h 5mph /  8km/h 86% 0in /  0mm 0.00 W/m2
03:25 34.5 °F /  1.4 °C 30.7 °F /  -0.7 °C 30.04in /  1017.2hPa Calm   3mph /  4.8km/h 86% 0in /  0mm 0.00 W/m2
03:30 34.4 °F /  1.3 °C 30.9 °F /  -0.6 °C 30.04in /  1017.2hPa Calm   3mph /  4.8km/h 87% 0in /  0mm 0.00 W/m2
03:35 34.3 °F /  1.3 °C 30.8 °F /  -0.7 °C 30.04in /  1017.2hPa Calm   3mph /  4.8km/h 87% 0in /  0mm 0.00 W/m2
03:40 34.1 °F /  1.2 °C 30.4 °F /  -0.9 °C 30.04in /  1017.2hPa Calm   3mph /  4.8km/h 86% 0in /  0mm 0.00 W/m2
03:45 33.9 °F /  1.1 °C 30.4 °F /  -0.9 °C 30.04in /  1017.2hPa WSW 2mph /  3.2km/h 2mph /  3.2km/h 87% 0in /  0mm 0.00 W/m2
03:50 33.8 °F /  1 °C 30.6 °F /  -0.8 °C 30.04in /  1017.2hPa WSW 2mph /  3.2km/h 3mph /  4.8km/h 88% 0in /  0mm 0.00 W/m2
03:55 33.6 °F /  0.9 °C 30.4 °F /  -0.9 °C 30.04in /  1017.2hPa WSW 2mph /  3.2km/h 3mph /  4.8km/h 88% 0in /  0mm 0.00 W/m2
04:00 33.5 °F /  0.8 °C 30.3 °F /  -0.9 °C 30.04in /  1017.2hPa WSW 3mph /  4.8km/h 4mph /  6.4km/h 88% 0in /  0mm 0.00 W/m2
04:05 33.3 °F /  0.7 °C 30.1 °F /  -1.1 °C 30.04in /  1017.2hPa WSW 3mph /  4.8km/h 4mph /  6.4km/h 88% 0in /  0mm 0.00 W/m2
04:10 33.1 °F /  0.6 °C 30.2 °F /  -1 °C 30.04in /  1017.2hPa WSW 3mph /  4.8km/h 4mph /  6.4km/h 89% 0in /  0mm 0.00 W/m2
04:15 33.1 °F /  0.6 °C 30.2 °F /  -1 °C 30.04in /  1017.2hPa WSW 1mph /  1.6km/h 4mph /  6.4km/h 89% 0in /  0mm 0.00 W/m2
04:20 33.1 °F /  0.6 °C 30.5 °F /  -0.8 °C 30.04in /  1017.2hPa West 3mph /  4.8km/h 4mph /  6.4km/h 90% 0in /  0mm 0.00 W/m2
04:25 33.4 °F /  0.8 °C 30.8 °F /  -0.7 °C 30.04in /  1017.2hPa West 3mph /  4.8km/h 4mph /  6.4km/h 90% 0in /  0mm 0.00 W/m2
04:30 33.6 °F /  0.9 °C 31 °F /  -0.6 °C 30.04in /  1017.2hPa WNW 3mph /  4.8km/h 4mph /  6.4km/h 90% 0in /  0mm 0.00 W/m2
04:35 33.8 °F /  1 °C 30.9 °F /  -0.6 °C 30.03in /  1016.8hPa WNW 1mph /  1.6km/h 4mph /  6.4km/h 89% 0in /  0mm 0.00 W/m2
04:40 33.8 °F /  1 °C 30.9 °F /  -0.6 °C 30.03in /  1016.8hPa WNW 1mph /  1.6km/h 4mph /  6.4km/h 89% 0in /  0mm 0.00 W/m2
04:45 33.7 °F /  0.9 °C 30.8 °F /  -0.7 °C 30.03in /  1016.8hPa Calm   4mph /  6.4km/h 89% 0in /  0mm 0.00 W/m2
04:50 33.7 °F /  0.9 °C 30.8 °F /  -0.7 °C 30.03in /  1016.8hPa Calm   2mph /  3.2km/h 89% 0in /  0mm 0.00 W/m2
04:55 33.6 °F /  0.9 °C 31 °F /  -0.6 °C 30.03in /  1016.8hPa Calm   2mph /  3.2km/h 90% 0in /  0mm 0.00 W/m2
05:00 33.8 °F /  1 °C 31.2 °F /  -0.4 °C 30.03in /  1016.8hPa Calm     90% 0in /  0mm 0.00 W/m2
05:05 34 °F /  1.1 °C 31.4 °F /  -0.3 °C 30.03in /  1016.8hPa WNW 1mph /  1.6km/h 1mph /  1.6km/h 90% 0in /  0mm 0.00 W/m2
05:10 34.1 °F /  1.2 °C 31.2 °F /  -0.4 °C 30.04in /  1017.2hPa WNW 2mph /  3.2km/h 3mph /  4.8km/h 89% 0in /  0mm 0.00 W/m2
05:15 34 °F /  1.1 °C 31.1 °F /  -0.5 °C 30.04in /  1017.2hPa WNW 2mph /  3.2km/h 3mph /  4.8km/h 89% 0in /  0mm 0.00 W/m2
05:20 34 °F /  1.1 °C 31.1 °F /  -0.5 °C 30.03in /  1016.8hPa WNW 1mph /  1.6km/h 3mph /  4.8km/h 89% 0in /  0mm 0.00 W/m2
05:25 34 °F /  1.1 °C 31.1 °F /  -0.5 °C 30.03in /  1016.8hPa WNW 2mph /  3.2km/h 3mph /  4.8km/h 89% 0in /  0mm 0.00 W/m2
05:30 34 °F /  1.1 °C 31.1 °F /  -0.5 °C 30.03in /  1016.8hPa WNW 3mph /  4.8km/h 3mph /  4.8km/h 89% 0in /  0mm 0.00 W/m2
05:35 34 °F /  1.1 °C 31.4 °F /  -0.3 °C 30.02in /  1016.5hPa NNW 3mph /  4.8km/h 4mph /  6.4km/h 90% 0in /  0mm 0.00 W/m2
05:40 34.1 °F /  1.2 °C 31.5 °F /  -0.3 °C 30.02in /  1016.5hPa NNW 2mph /  3.2km/h 4mph /  6.4km/h 90% 0in /  0mm 0.00 W/m2
05:45 34.3 °F /  1.3 °C 31.7 °F /  -0.2 °C 30.02in /  1016.5hPa NNW 2mph /  3.2km/h 4mph /  6.4km/h 90% 0in /  0mm 0.00 W/m2
05:50 34.4 °F /  1.3 °C 31.8 °F /  -0.1 °C 30.01in /  1016.1hPa NNW 1mph /  1.6km/h 4mph /  6.4km/h 90% 0in /  0mm 0.00 W/m2
05:55 34.6 °F /  1.4 °C 32 °F /  0 °C 30.01in /  1016.1hPa Calm   3mph /  4.8km/h 90% 0in /  0mm 0.00 W/m2
06:00 34.7 °F /  1.5 °C 31.8 °F /  -0.1 °C 30.01in /  1016.1hPa NNW 3mph /  4.8km/h 4mph /  6.4km/h 89% 0in /  0mm 0.00 W/m2
06:05 34.8 °F /  1.6 °C 32.2 °F /  0.1 °C 30.01in /  1016.1hPa North 2mph /  3.2km/h 4mph /  6.4km/h 90% 0in /  0mm 0.00 W/m2
06:10 34.7 °F /  1.5 °C 31.5 °F /  -0.3 °C 30.02in /  1016.5hPa NE 1mph /  1.6km/h 4mph /  6.4km/h 88% 0in /  0mm 0.00 W/m2
06:15 34.3 °F /  1.3 °C 30.8 °F /  -0.7 °C 30.01in /  1016.1hPa Calm   4mph /  6.4km/h 87% 0in /  0mm 0.00 W/m2
06:20 34 °F /  1.1 °C 30.8 °F /  -0.7 °C 30.01in /  1016.1hPa Calm   2mph /  3.2km/h 88% 0in /  0mm 0.00 W/m2
06:25 33.8 °F /  1 °C 30.9 °F /  -0.6 °C 30.02in /  1016.5hPa Calm   1mph /  1.6km/h 89% 0in /  0mm 0.00 W/m2
06:30 33.5 °F /  0.8 °C 30.6 °F /  -0.8 °C 30.01in /  1016.1hPa Calm   1mph /  1.6km/h 89% 0in /  0mm 0.00 W/m2
06:35 33.4 °F /  0.8 °C 30.5 °F /  -0.8 °C 30.01in /  1016.1hPa ESE 3mph /  4.8km/h 3mph /  4.8km/h 89% 0in /  0mm 0.00 W/m2
06:40 33.2 °F /  0.7 °C 30.6 °F /  -0.8 °C 30.01in /  1016.1hPa ESE 1mph /  1.6km/h 3mph /  4.8km/h 90% 0in /  0mm 0.00 W/m2
06:45 33.4 °F /  0.8 °C 31.1 °F /  -0.5 °C 30.01in /  1016.1hPa Calm   3mph /  4.8km/h 91% 0in /  0mm 0.00 W/m2
06:50 33.6 °F /  0.9 °C 31.3 °F /  -0.4 °C 30.00in /  1015.8hPa Calm   3mph /  4.8km/h 91% 0in /  0mm 0.00 W/m2
06:55 33.8 °F /  1 °C 31.2 °F /  -0.4 °C 30.00in /  1015.8hPa ESE 2mph /  3.2km/h 3mph /  4.8km/h 90% 0in /  0mm 0.00 W/m2
07:00 33.9 °F /  1.1 °C 31.3 °F /  -0.4 °C 30.00in /  1015.8hPa Calm   2mph /  3.2km/h 90% 0in /  0mm 0.00 W/m2
07:05 34 °F /  1.1 °C 31.4 °F /  -0.3 °C 30.00in /  1015.8hPa Calm   2mph /  3.2km/h 90% 0in /  0mm 0.00 W/m2
07:10 34 °F /  1.1 °C 31.4 °F /  -0.3 °C 30.00in /  1015.8hPa Calm   2mph /  3.2km/h 90% 0in /  0mm 0.00 W/m2
07:15 34 °F /  1.1 °C 31.1 °F /  -0.5 °C 30.01in /  1016.1hPa ESE 1mph /  1.6km/h 2mph /  3.2km/h 89% 0in /  0mm 0.00 W/m2
07:20 33.9 °F /  1.1 °C 31 °F /  -0.6 °C 30.00in /  1015.8hPa South 3mph /  4.8km/h 3mph /  4.8km/h 89% 0in /  0mm 0.00 W/m2
07:25 33.7 °F /  0.9 °C 30.8 °F /  -0.7 °C 30.01in /  1016.1hPa SSW 1mph /  1.6km/h 3mph /  4.8km/h 89% 0in /  0mm 0.00 W/m2
07:30 33.3 °F /  0.7 °C 30.7 °F /  -0.7 °C 30.01in /  1016.1hPa Calm   3mph /  4.8km/h 90% 0in /  0mm 0.00 W/m2
07:35 33.1 °F /  0.6 °C 30.5 °F /  -0.8 °C 30.00in /  1015.8hPa Calm   2mph /  3.2km/h 90% 0in /  0mm 0.00 W/m2
07:40 33.1 °F /  0.6 °C 30.8 °F /  -0.7 °C 30.00in /  1015.8hPa Calm   2mph /  3.2km/h 91% 0in /  0mm 0.00 W/m2
07:45 33.1 °F /  0.6 °C 30.8 °F /  -0.7 °C 30.00in /  1015.8hPa Calm   2mph /  3.2km/h 91% 0in /  0mm 7.00 W/m2
07:50 33.1 °F /  0.6 °C 30.8 °F /  -0.7 °C 30.00in /  1015.8hPa Calm   1mph /  1.6km/h 91% 0in /  0mm 9.00 W/m2
07:55 33.2 °F /  0.7 °C 30.9 °F /  -0.6 °C 29.99in /  1015.5hPa Calm   1mph /  1.6km/h 91% 0in /  0mm 11.00 W/m2
08:00 33.3 °F /  0.7 °C 31 °F /  -0.6 °C 29.99in /  1015.5hPa Calm     91% 0in /  0mm 14.00 W/m2
08:05 33.4 °F /  0.8 °C 31.1 °F /  -0.5 °C 30.00in /  1015.8hPa SSW 1mph /  1.6km/h 2mph /  3.2km/h 91% 0in /  0mm 19.00 W/m2
08:10 33.5 °F /  0.8 °C 31.2 °F /  -0.4 °C 29.99in /  1015.5hPa Calm   2mph /  3.2km/h 91% 0in /  0mm 26.00 W/m2
08:15 33.8 °F /  1 °C 31.5 °F /  -0.3 °C 29.99in /  1015.5hPa South 2mph /  3.2km/h 2mph /  3.2km/h 91% 0in /  0mm 28.00 W/m2
08:20 34 °F /  1.1 °C 31.6 °F /  -0.2 °C 30.00in /  1015.8hPa South 1mph /  1.6km/h 2mph /  3.2km/h 91% 0in /  0mm 39.00 W/m2
08:25 34 °F /  1.1 °C 31.6 °F /  -0.2 °C 29.99in /  1015.5hPa South 1mph /  1.6km/h 2mph /  3.2km/h 91% 0in /  0mm 39.00 W/m2
08:30 34.3 °F /  1.3 °C 31.7 °F /  -0.2 °C 29.99in /  1015.5hPa East 1mph /  1.6km/h 3mph /  4.8km/h 90% 0in /  0mm 42.00 W/m2
08:35 34.2 °F /  1.2 °C 31.6 °F /  -0.2 °C 29.99in /  1015.5hPa East 1mph /  1.6km/h 3mph /  4.8km/h 90% 0in /  0mm 47.00 W/m2
08:40 34.2 °F /  1.2 °C 31.3 °F /  -0.4 °C 30.00in /  1015.8hPa East 2mph /  3.2km/h 3mph /  4.8km/h 89% 0in /  0mm 56.00 W/m2
08:45 34.3 °F /  1.3 °C 31.7 °F /  -0.2 °C 30.00in /  1015.8hPa East 3mph /  4.8km/h 3mph /  4.8km/h 90% 0in /  0mm 62.00 W/m2
08:50 34.3 °F /  1.3 °C 31.7 °F /  -0.2 °C 30.00in /  1015.8hPa East 3mph /  4.8km/h 4mph /  6.4km/h 90% 0in /  0mm 60.00 W/m2
08:55 34.4 °F /  1.3 °C 31.8 °F /  -0.1 °C 29.99in /  1015.5hPa ENE 3mph /  4.8km/h 4mph /  6.4km/h 90% 0in /  0mm 69.00 W/m2
09:00 34.5 °F /  1.4 °C 31.9 °F /  -0.1 °C 29.99in /  1015.5hPa ENE 4mph /  6.4km/h 4mph /  6.4km/h 90% 0in /  0mm 76.00 W/m2
09:05 34.7 °F /  1.5 °C 31.8 °F /  -0.1 °C 29.99in /  1015.5hPa Calm   4mph /  6.4km/h 89% 0in /  0mm 74.00 W/m2
09:10 34.9 °F /  1.6 °C 32.3 °F /  0.2 °C 29.99in /  1015.5hPa Calm   4mph /  6.4km/h 90% 0in /  0mm 72.00 W/m2
09:15 35.2 °F /  1.8 °C 32.6 °F /  0.3 °C 29.99in /  1015.5hPa East 1mph /  1.6km/h 4mph /  6.4km/h 90% 0in /  0mm 69.00 W/m2
09:20 35.3 °F /  1.8 °C 32.7 °F /  0.4 °C 30.00in /  1015.8hPa SSE 1mph /  1.6km/h 4mph /  6.4km/h 90% 0in /  0mm 76.00 W/m2
09:25 35.5 °F /  1.9 °C 32.9 °F /  0.5 °C 30.00in /  1015.8hPa Calm   3mph /  4.8km/h 90% 0in /  0mm 97.00 W/m2
09:30 35.6 °F /  2 °C 32.7 °F /  0.4 °C 29.99in /  1015.5hPa Calm   2mph /  3.2km/h 89% 0in /  0mm 118.00 W/m2
09:35 35.8 °F /  2.1 °C 32.9 °F /  0.5 °C 29.99in /  1015.5hPa SSE 1mph /  1.6km/h 2mph /  3.2km/h 89% 0in /  0mm 97.00 W/m2
09:40 36.1 °F /  2.3 °C 33.2 °F /  0.7 °C 29.99in /  1015.5hPa SSE 1mph /  1.6km/h 2mph /  3.2km/h 89% 0in /  0mm 95.00 W/m2
09:45 36.4 °F /  2.4 °C 33.5 °F /  0.8 °C 29.99in /  1015.5hPa Calm   2mph /  3.2km/h 89% 0in /  0mm 84.00 W/m2
09:50 36.7 °F /  2.6 °C 33.5 °F /  0.8 °C 29.99in /  1015.5hPa Calm   2mph /  3.2km/h 88% 0in /  0mm 81.00 W/m2
09:55 36.9 °F /  2.7 °C 33.7 °F /  0.9 °C 29.99in /  1015.5hPa Calm   2mph /  3.2km/h 88% 0in /  0mm 77.00 W/m2
10:00 37.1 °F /  2.8 °C 33.9 °F /  1.1 °C 29.99in /  1015.5hPa SSE 4mph /  6.4km/h 4mph /  6.4km/h 88% 0in /  0mm 84.00 W/m2
10:05 37.2 °F /  2.9 °C 34 °F /  1.1 °C 29.99in /  1015.5hPa SSE 1mph /  1.6km/h 5mph /  8km/h 88% 0in /  0mm 97.00 W/m2
10:10 37.4 °F /  3 °C 33.9 °F /  1.1 °C 29.98in /  1015.1hPa SSE 4mph /  6.4km/h 5mph /  8km/h 87% 0in /  0mm 105.00 W/m2
10:15 37.6 °F /  3.1 °C 34.4 °F /  1.3 °C 29.99in /  1015.5hPa SSE 2mph /  3.2km/h 5mph /  8km/h 88% 0in /  0mm 116.00 W/m2
10:20 37.7 °F /  3.2 °C 34.2 °F /  1.2 °C 29.99in /  1015.5hPa SSE 3mph /  4.8km/h 5mph /  8km/h 87% 0in /  0mm 141.00 W/m2
10:25 38 °F /  3.3 °C 35.9 °F /  2.2 °C 29.98in /  1015.1hPa ESE 3mph /  4.8km/h 5mph /  8km/h 92% 0in /  0mm 197.00 W/m2
10:30 38.4 °F /  3.6 °C 34.9 °F /  1.6 °C 29.98in /  1015.1hPa SE 4mph /  6.4km/h 4mph /  6.4km/h 87% 0in /  0mm 227.00 W/m2
10:35 38.9 °F /  3.8 °C 34.8 °F /  1.6 °C 29.98in /  1015.1hPa ESE 4mph /  6.4km/h 7mph /  11.3km/h 85% 0in /  0mm 292.00 W/m2
10:40 39.6 °F /  4.2 °C 35.2 °F /  1.8 °C 29.98in /  1015.1hPa SE 4mph /  6.4km/h 7mph /  11.3km/h 84% 0in /  0mm 223.00 W/m2
10:45 39.8 °F /  4.3 °C 35.1 °F /  1.7 °C 29.98in /  1015.1hPa ESE 4mph /  6.4km/h 7mph /  11.3km/h 83% 0in /  0mm 204.00 W/m2
10:50 39.9 °F /  4.4 °C 35.2 °F /  1.8 °C 29.99in /  1015.5hPa SSE 5mph /  8km/h 8mph /  12.9km/h 83% 0in /  0mm 172.00 W/m2
10:55 40 °F /  4.4 °C 35.3 °F /  1.8 °C 29.99in /  1015.5hPa SE 4mph /  6.4km/h 8mph /  12.9km/h 83% 0in /  0mm 167.00 W/m2
11:00 40 °F /  4.4 °C 35.3 °F /  1.8 °C 29.99in /  1015.5hPa SSE 5mph /  8km/h 8mph /  12.9km/h 83% 0in /  0mm 165.00 W/m2
11:05 40.1 °F /  4.5 °C 35.4 °F /  1.9 °C 29.99in /  1015.5hPa SE 8mph /  12.9km/h 9mph /  14.5km/h 83% 0in /  0mm 134.00 W/m2
11:10 40 °F /  4.4 °C 35.3 °F /  1.8 °C 29.98in /  1015.1hPa ESE 6mph /  9.7km/h 9mph /  14.5km/h 83% 0in /  0mm 141.00 W/m2
11:15 40 °F /  4.4 °C 35.3 °F /  1.8 °C 29.98in /  1015.1hPa SE 5mph /  8km/h 8mph /  12.9km/h 83% 0in /  0mm 160.00 W/m2
11:20 40.2 °F /  4.6 °C 35.1 °F /  1.7 °C 29.99in /  1015.5hPa SE 3mph /  4.8km/h 8mph /  12.9km/h 82% 0in /  0mm 193.00 W/m2
11:25 40.3 °F /  4.6 °C 35.2 °F /  1.8 °C 29.99in /  1015.5hPa SE 4mph /  6.4km/h 8mph /  12.9km/h 82% 0in /  0mm 202.00 W/m2
11:30 40.6 °F /  4.8 °C 35.5 °F /  1.9 °C 29.99in /  1015.5hPa SSE 5mph /  8km/h 8mph /  12.9km/h 82% 0in /  0mm 199.00 W/m2
11:35 40.9 °F /  4.9 °C 35.8 °F /  2.1 °C 29.98in /  1015.1hPa SSE 4mph /  6.4km/h 8mph /  12.9km/h 82% 0in /  0mm 174.00 W/m2
11:40 41.1 °F /  5.1 °C 35.7 °F /  2.1 °C 29.98in /  1015.1hPa SE 4mph /  6.4km/h 8mph /  12.9km/h 81% 0in /  0mm 220.00 W/m2
11:45 41.4 °F /  5.2 °C 35.7 °F /  2.1 °C 29.98in /  1015.1hPa ESE 7mph /  11.3km/h 9mph /  14.5km/h 80% 0in /  0mm 186.00 W/m2
11:50 41.2 °F /  5.1 °C 35.5 °F /  1.9 °C 29.98in /  1015.1hPa SE 8mph /  12.9km/h 9mph /  14.5km/h 80% 0in /  0mm 141.00 W/m2
11:55 41.1 °F /  5.1 °C 35.4 °F /  1.9 °C 29.97in /  1014.8hPa SE 7mph /  11.3km/h 9mph /  14.5km/h 80% 0in /  0mm 127.00 W/m2
12:00 41.1 °F /  5.1 °C 35.4 °F /  1.9 °C 29.97in /  1014.8hPa ESE 4mph /  6.4km/h 9mph /  14.5km/h 80% 0in /  0mm 137.00 W/m2
12:05 41.1 °F /  5.1 °C 35.4 °F /  1.9 °C 29.97in /  1014.8hPa SSE 5mph /  8km/h 9mph /  14.5km/h 80% 0in /  0mm 134.00 W/m2
12:10 41.2 °F /  5.1 °C 35.5 °F /  1.9 °C 29.98in /  1015.1hPa SE 4mph /  6.4km/h 8mph /  12.9km/h 80% 0in /  0mm 118.00 W/m2
12:15 41.4 °F /  5.2 °C 35.7 °F /  2.1 °C 29.97in /  1014.8hPa SSE 5mph /  8km/h 8mph /  12.9km/h 80% 0in /  0mm 137.00 W/m2
12:20 41.6 °F /  5.3 °C 35.9 °F /  2.2 °C 29.97in /  1014.8hPa SE 5mph /  8km/h 8mph /  12.9km/h 80% 0in /  0mm 218.00 W/m2
12:25 42 °F /  5.6 °C 36.3 °F /  2.4 °C 29.97in /  1014.8hPa SSE 5mph /  8km/h 8mph /  12.9km/h 80% 0in /  0mm 278.00 W/m2
12:30 42.5 °F /  5.8 °C 36.8 °F /  2.7 °C 29.97in /  1014.8hPa SE 4mph /  6.4km/h 8mph /  12.9km/h 80% 0in /  0mm 276.00 W/m2
12:35 42.7 °F /  5.9 °C 36.6 °F /  2.6 °C 29.97in /  1014.8hPa ESE 3mph /  4.8km/h 8mph /  12.9km/h 79% 0in /  0mm 230.00 W/m2
12:40 43.1 °F /  6.2 °C 36.7 °F /  2.6 °C 29.96in /  1014.4hPa SE 5mph /  8km/h 7mph /  11.3km/h 78% 0in /  0mm 253.00 W/m2
12:45 43.3 °F /  6.3 °C 36.9 °F /  2.7 °C 29.96in /  1014.4hPa SE 3mph /  4.8km/h 7mph /  11.3km/h 78% 0in /  0mm 308.00 W/m2
12:50 43.5 °F /  6.4 °C 37.1 °F /  2.8 °C 29.96in /  1014.4hPa ESE 4mph /  6.4km/h 7mph /  11.3km/h 78% 0in /  0mm 251.00 W/m2
12:55 43.6 °F /  6.4 °C 36.5 °F /  2.5 °C 29.96in /  1014.4hPa ESE 7mph /  11.3km/h 7mph /  11.3km/h 76% 0in /  0mm 243.00 W/m2
13:00 43.8 °F /  6.6 °C 37.1 °F /  2.8 °C 29.96in /  1014.4hPa ESE 3mph /  4.8km/h 7mph /  11.3km/h 77% 0in /  0mm 348.00 W/m2
13:05 44.3 °F /  6.8 °C 37.2 °F /  2.9 °C 29.96in /  1014.4hPa SE 1mph /  1.6km/h 7mph /  11.3km/h 76% 0in /  0mm 290.00 W/m2
13:10 44.5 °F /  6.9 °C 37.1 °F /  2.8 °C 29.96in /  1014.4hPa South 5mph /  8km/h 7mph /  11.3km/h 75% 0in /  0mm 251.00 W/m2
13:15 44.7 °F /  7.1 °C 37.3 °F /  2.9 °C 29.97in /  1014.8hPa SE 3mph /  4.8km/h 7mph /  11.3km/h 75% 0in /  0mm 320.00 W/m2
13:20 45.3 °F /  7.4 °C 37.5 °F /  3.1 °C 29.96in /  1014.4hPa SSE 2mph /  3.2km/h 5mph /  8km/h 74% 0in /  0mm 364.00 W/m2
13:25 45.6 °F /  7.6 °C 37.4 °F /  3 °C 29.96in /  1014.4hPa East 3mph /  4.8km/h 5mph /  8km/h 73% 0in /  0mm 251.00 W/m2
13:30 45.8 °F /  7.7 °C 37.6 °F /  3.1 °C 29.97in /  1014.8hPa East 1mph /  1.6km/h 5mph /  8km/h 73% 0in /  0mm 237.00 W/m2
13:35 46 °F /  7.8 °C 37.5 °F /  3.1 °C 29.97in /  1014.8hPa SSW 3mph /  4.8km/h 4mph /  6.4km/h 72% 0in /  0mm 202.00 W/m2
13:40 46 °F /  7.8 °C 37.5 °F /  3.1 °C 29.97in /  1014.8hPa SSW 2mph /  3.2km/h 4mph /  6.4km/h 72% 0in /  0mm 220.00 W/m2
13:45 46 °F /  7.8 °C 37.5 °F /  3.1 °C 29.97in /  1014.8hPa South 2mph /  3.2km/h 4mph /  6.4km/h 72% 0in /  0mm 193.00 W/m2
13:50 45.9 °F /  7.7 °C 37.7 °F /  3.2 °C 29.97in /  1014.8hPa Calm   4mph /  6.4km/h 73% 0in /  0mm 167.00 W/m2
13:55 45.9 °F /  7.7 °C 37.4 °F /  3 °C 29.96in /  1014.4hPa South 2mph /  3.2km/h 3mph /  4.8km/h 72% 0in /  0mm 134.00 W/m2
14:00 45.7 °F /  7.6 °C 37.2 °F /  2.9 °C 29.96in /  1014.4hPa SSE 2mph /  3.2km/h 3mph /  4.8km/h 72% 0in /  0mm 121.00 W/m2
14:05 45.5 °F /  7.5 °C 37 °F /  2.8 °C 29.96in /  1014.4hPa SSE 2mph /  3.2km/h 3mph /  4.8km/h 72% 0in /  0mm 121.00 W/m2
14:10 45.4 °F /  7.4 °C 36.9 °F /  2.7 °C 29.96in /  1014.4hPa Calm   4mph /  6.4km/h 72% 0in /  0mm 162.00 W/m2
14:15 45.4 °F /  7.4 °C 37.2 °F /  2.9 °C 29.96in /  1014.4hPa SSE 1mph /  1.6km/h 4mph /  6.4km/h 73% 0in /  0mm 130.00 W/m2
14:20 45.6 °F /  7.6 °C 37.1 °F /  2.8 °C 29.96in /  1014.4hPa SSE 1mph /  1.6km/h 3mph /  4.8km/h 72% 0in /  0mm 114.00 W/m2
14:25 45.6 °F /  7.6 °C 37.1 °F /  2.8 °C 29.96in /  1014.4hPa ENE 3mph /  4.8km/h 3mph /  4.8km/h 72% 0in /  0mm 127.00 W/m2
14:30 45.6 °F /  7.6 °C 37.4 °F /  3 °C 29.97in /  1014.8hPa North 4mph /  6.4km/h 4mph /  6.4km/h 73% 0in /  0mm 137.00 W/m2
14:35 45.8 °F /  7.7 °C 37.6 °F /  3.1 °C 29.97in /  1014.8hPa NNE 3mph /  4.8km/h 5mph /  8km/h 73% 0in /  0mm 100.00 W/m2
14:40 45.8 °F /  7.7 °C 37.3 °F /  2.9 °C 29.97in /  1014.8hPa NNE 1mph /  1.6km/h 7mph /  11.3km/h 72% 0in /  0mm 72.00 W/m2
14:45 45.9 °F /  7.7 °C 37.4 °F /  3 °C 29.98in /  1015.1hPa NNE 2mph /  3.2km/h 7mph /  11.3km/h 72% 0in /  0mm 63.00 W/m2
14:50 45.7 °F /  7.6 °C 37.2 °F /  2.9 °C 29.97in /  1014.8hPa NW 4mph /  6.4km/h 6mph /  9.7km/h 72% 0in /  0mm 58.00 W/m2
14:55 45.4 °F /  7.4 °C 36.9 °F /  2.7 °C 29.98in /  1015.1hPa NNW 3mph /  4.8km/h 6mph /  9.7km/h 72% 0in /  0mm 70.00 W/m2
15:00 45.3 °F /  7.4 °C 37.2 °F /  2.9 °C 29.98in /  1015.1hPa North 3mph /  4.8km/h 5mph /  8km/h 73% 0in /  0mm 60.00 W/m2
15:05 45.1 °F /  7.3 °C 37 °F /  2.8 °C 29.99in /  1015.5hPa North 4mph /  6.4km/h 5mph /  8km/h 73% 0in /  0mm 39.00 W/m2
15:10 44.8 °F /  7.1 °C 36.7 °F /  2.6 °C 29.99in /  1015.5hPa NNW 6mph /  9.7km/h 6mph /  9.7km/h 73% 0in /  0mm 33.00 W/m2
15:15 44.7 °F /  7.1 °C 36.6 °F /  2.6 °C 29.99in /  1015.5hPa North 5mph /  8km/h 7mph /  11.3km/h 73% 0in /  0mm 49.00 W/m2
15:20 44.6 °F /  7 °C 36.8 °F /  2.7 °C 29.99in /  1015.5hPa North 4mph /  6.4km/h 7mph /  11.3km/h 74% 0in /  0mm 56.00 W/m2
15:25 44.6 °F /  7 °C 36.8 °F /  2.7 °C 29.99in /  1015.5hPa North 3mph /  4.8km/h 6mph /  9.7km/h 74% 0in /  0mm 58.00 W/m2
15:30 44.6 °F /  7 °C 36.8 °F /  2.7 °C 30.00in /  1015.8hPa North 6mph /  9.7km/h 9mph /  14.5km/h 74% 0in /  0mm 62.00 W/m2
15:35 44.6 °F /  7 °C 37.2 °F /  2.9 °C 30.00in /  1015.8hPa North 8mph /  12.9km/h 11mph /  17.7km/h 75% 0in /  0mm 49.00 W/m2
15:40 44.4 °F /  6.9 °C 37 °F /  2.8 °C 30.00in /  1015.8hPa North 12mph /  19.3km/h 13mph /  20.9km/h 75% 0in /  0mm 49.00 W/m2
15:45 44.2 °F /  6.8 °C 36.8 °F /  2.7 °C 30.00in /  1015.8hPa North 8mph /  12.9km/h 13mph /  20.9km/h 75% 0in /  0mm 33.00 W/m2
15:50 43.8 °F /  6.6 °C 37.4 °F /  3 °C 30.01in /  1016.1hPa NNW 12mph /  19.3km/h 17mph /  27.4km/h 78% 0in /  0mm 35.00 W/m2
15:55 43.2 °F /  6.2 °C 36.8 °F /  2.7 °C 30.01in /  1016.1hPa NNW 14mph /  22.5km/h 17mph /  27.4km/h 78% 0in /  0mm 33.00 W/m2
16:00 42.7 °F /  5.9 °C 36.6 °F /  2.6 °C 30.01in /  1016.1hPa North 9mph /  14.5km/h 18mph /  29km/h 79% 0in /  0mm 33.00 W/m2
16:05 42.3 °F /  5.7 °C 36.6 °F /  2.6 °C 30.01in /  1016.1hPa NNE 14mph /  22.5km/h 18mph /  29km/h 80% 0in /  0mm 30.00 W/m2
16:10 42 °F /  5.6 °C 36.3 °F /  2.4 °C 30.02in /  1016.5hPa North 12mph /  19.3km/h 18mph /  29km/h 80% 0in /  0mm 21.00 W/m2
16:15 41.4 °F /  5.2 °C 36 °F /  2.2 °C 30.03in /  1016.8hPa North 12mph /  19.3km/h 19mph /  30.6km/h 81% 0in /  0mm 14.00 W/m2
16:20 40.9 °F /  4.9 °C 35.8 °F /  2.1 °C 30.04in /  1017.2hPa NNE 9mph /  14.5km/h 19mph /  30.6km/h 82% 0in /  0mm 12.00 W/m2
16:25 40.4 °F /  4.7 °C 35.9 °F /  2.2 °C 30.04in /  1017.2hPa North 17mph /  27.4km/h 20mph /  32.2km/h 84% 0in /  0mm 11.00 W/m2
16:30 40 °F /  4.4 °C 35.6 °F /  2 °C 30.04in /  1017.2hPa North 18mph /  29km/h 20mph /  32.2km/h 84% 0in /  0mm 11.00 W/m2
16:35 39.7 °F /  4.3 °C 35.6 °F /  2 °C 30.04in /  1017.2hPa North 16mph /  25.7km/h 21mph /  33.8km/h 85% 0in /  0mm 7.00 W/m2
16:40 39.5 °F /  4.2 °C 35.7 °F /  2.1 °C 30.05in /  1017.5hPa North 14mph /  22.5km/h 21mph /  33.8km/h 86% 0in /  0mm 5.00 W/m2
16:45 39.3 °F /  4.1 °C 35.8 °F /  2.1 °C 30.05in /  1017.5hPa North 17mph /  27.4km/h 21mph /  33.8km/h 87% 0in /  0mm 0.00 W/m2
16:50 39.1 °F /  3.9 °C 35.6 °F /  2 °C 30.06in /  1017.8hPa North 16mph /  25.7km/h 21mph /  33.8km/h 87% 0in /  0mm 0.00 W/m2
16:55 38.9 °F /  3.8 °C 35.4 °F /  1.9 °C 30.07in /  1018.2hPa NNW 14mph /  22.5km/h 21mph /  33.8km/h 87% 0in /  0mm 0.00 W/m2
17:00 38.7 °F /  3.7 °C 35.2 °F /  1.8 °C 30.07in /  1018.2hPa North 12mph /  19.3km/h 21mph /  33.8km/h 87% 0in /  0mm 0.00 W/m2
17:05 38.3 °F /  3.5 °C 34.8 °F /  1.6 °C 30.07in /  1018.2hPa North 14mph /  22.5km/h 21mph /  33.8km/h 87% 0in /  0mm 0.00 W/m2
17:10 37.9 °F /  3.3 °C 34.4 °F /  1.3 °C 30.07in /  1018.2hPa North 15mph /  24.1km/h 21mph /  33.8km/h 87% 0in /  0mm 0.00 W/m2
17:15 37.5 °F /  3.1 °C 34 °F /  1.1 °C 30.07in /  1018.2hPa NNE 10mph /  16.1km/h 21mph /  33.8km/h 87% 0in /  0mm 0.00 W/m2
17:20 37.1 °F /  2.8 °C 33.6 °F /  0.9 °C 30.07in /  1018.2hPa North 12mph /  19.3km/h 21mph /  33.8km/h 87% 0in /  0mm 0.00 W/m2
17:25 36.8 °F /  2.7 °C 33.3 °F /  0.7 °C 30.07in /  1018.2hPa North 17mph /  27.4km/h 20mph /  32.2km/h 87% 0in /  0mm 0.00 W/m2
17:30 36.5 °F /  2.5 °C 33 °F /  0.6 °C 30.08in /  1018.5hPa North 18mph /  29km/h 21mph /  33.8km/h 87% 0in /  0mm 0.00 W/m2
17:35 36.2 °F /  2.3 °C 33 °F /  0.6 °C 30.08in /  1018.5hPa North 16mph /  25.7km/h 21mph /  33.8km/h 88% 0in /  0mm 0.00 W/m2
17:40 36 °F /  2.2 °C 32.8 °F /  0.4 °C 30.08in /  1018.5hPa North 11mph /  17.7km/h 21mph /  33.8km/h 88% 0in /  0mm 0.00 W/m2
17:45 35.9 °F /  2.2 °C 32.7 °F /  0.4 °C 30.09in /  1018.8hPa NNW 12mph /  19.3km/h 21mph /  33.8km/h 88% 0in /  0mm 0.00 W/m2
17:50 35.7 °F /  2.1 °C 32.5 °F /  0.3 °C 30.09in /  1018.8hPa North 12mph /  19.3km/h 21mph /  33.8km/h 88% 0in /  0mm 0.00 W/m2
17:55 35.6 °F /  2 °C 32.4 °F /  0.2 °C 30.10in /  1019.2hPa NNW 16mph /  25.7km/h 18mph /  29km/h 88% 0in /  0mm 0.00 W/m2
18:00 35.6 °F /  2 °C 32.4 °F /  0.2 °C 30.10in /  1019.2hPa NNW 10mph /  16.1km/h 18mph /  29km/h 88% 0in /  0mm 0.00 W/m2
18:05 35.5 °F /  1.9 °C 32.3 °F /  0.2 °C 30.10in /  1019.2hPa North 13mph /  20.9km/h 18mph /  29km/h 88% 0in /  0mm 0.00 W/m2
18:10 35.3 °F /  1.8 °C 32.1 °F /  0.1 °C 30.10in /  1019.2hPa NNW 14mph /  22.5km/h 20mph /  32.2km/h 88% 0in /  0mm 0.00 W/m2
18:15 35.1 °F /  1.7 °C 31.9 °F /  -0.1 °C 30.11in /  1019.5hPa NW 16mph /  25.7km/h 20mph /  32.2km/h 88% 0in /  0mm 0.00 W/m2
18:20 34.9 °F /  1.6 °C 31.7 °F /  -0.2 °C 30.11in /  1019.5hPa NNW 9mph /  14.5km/h 20mph /  32.2km/h 88% 0in /  0mm 0.00 W/m2
18:25 34.7 °F /  1.5 °C 31.5 °F /  -0.3 °C 30.11in /  1019.5hPa North 14mph /  22.5km/h 20mph /  32.2km/h 88% 0in /  0mm 0.00 W/m2
18:30 34.5 °F /  1.4 °C 31 °F /  -0.6 °C 30.11in /  1019.5hPa NNW 11mph /  17.7km/h 20mph /  32.2km/h 87% 0in /  0mm 0.00 W/m2
18:35 34.4 °F /  1.3 °C 31.2 °F /  -0.4 °C 30.12in /  1019.9hPa NNW 12mph /  19.3km/h 20mph /  32.2km/h 88% 0in /  0mm 0.00 W/m2
18:40 34.2 °F /  1.2 °C 30.7 °F /  -0.7 °C 30.12in /  1019.9hPa NNW 11mph /  17.7km/h 19mph /  30.6km/h 87% 0in /  0mm 0.00 W/m2
18:45 34 °F /  1.1 °C 30.5 °F /  -0.8 °C 30.12in /  1019.9hPa North 13mph /  20.9km/h 19mph /  30.6km/h 87% 0in /  0mm 0.00 W/m2
18:50 33.9 °F /  1.1 °C 30.7 °F /  -0.7 °C 30.13in /  1020.2hPa North 16mph /  25.7km/h 18mph /  29km/h 88% 0in /  0mm 0.00 W/m2
18:55 33.7 °F /  0.9 °C 30.5 °F /  -0.8 °C 30.14in /  1020.5hPa North 12mph /  19.3km/h 19mph /  30.6km/h 88% 0in /  0mm 0.00 W/m2
19:00 33.5 °F /  0.8 °C 30.6 °F /  -0.8 °C 30.14in /  1020.5hPa NNW 15mph /  24.1km/h 19mph /  30.6km/h 89% 0in /  0mm 0.00 W/m2
19:05 33.3 °F /  0.7 °C 30.4 °F /  -0.9 °C 30.15in /  1020.9hPa North 16mph /  25.7km/h 21mph /  33.8km/h 89% 0in /  0mm 0.00 W/m2
19:10 33.1 °F /  0.6 °C 30.2 °F /  -1 °C 30.16in /  1021.2hPa NW 12mph /  19.3km/h 23mph /  37km/h 89% 0in /  0mm 0.00 W/m2
19:15 32.6 °F /  0.3 °C 29.2 °F /  -1.6 °C 30.16in /  1021.2hPa North 16mph /  25.7km/h 24mph /  38.6km/h 87% 0in /  0mm 0.00 W/m2
19:20 32.2 °F /  0.1 °C 28.8 °F /  -1.8 °C 30.16in /  1021.2hPa NNW 19mph /  30.6km/h 24mph /  38.6km/h 87% 0in /  0mm 0.00 W/m2
19:25 31.8 °F /  -0.1 °C 28.7 °F /  -1.8 °C 30.17in /  1021.6hPa North 13mph /  20.9km/h 24mph /  38.6km/h 88% 0in /  0mm 0.00 W/m2
19:30 31.5 °F /  -0.3 °C 28.4 °F /  -2 °C 30.18in /  1021.9hPa North 24mph /  38.6km/h 27mph /  43.5km/h 88% 0in /  0mm 0.00 W/m2
19:35 31 °F /  -0.6 °C 27.9 °F /  -2.3 °C 30.18in /  1021.9hPa NNW 14mph /  22.5km/h 27mph /  43.5km/h 88% 0in /  0mm 0.00 W/m2
19:40 30.7 °F /  -0.7 °C 27.6 °F /  -2.4 °C 30.19in /  1022.2hPa North 13mph /  20.9km/h 27mph /  43.5km/h 88% 0in /  0mm 0.00 W/m2
19:45 30.5 °F /  -0.8 °C 27.4 °F /  -2.6 °C 30.19in /  1022.2hPa North 14mph /  22.5km/h 27mph /  43.5km/h 88% 0in /  0mm 0.00 W/m2
19:50 30.3 °F /  -0.9 °C 27.4 °F /  -2.6 °C 30.20in /  1022.6hPa NNW 13mph /  20.9km/h 23mph /  37km/h 89% 0in /  0mm 0.00 W/m2
19:55 30 °F /  -1.1 °C 27.2 °F /  -2.7 °C 30.20in /  1022.6hPa NNW 18mph /  29km/h 23mph /  37km/h 89% 0in /  0mm 0.00 W/m2
20:00 29.7 °F /  -1.3 °C 26.6 °F /  -3 °C 30.19in /  1022.2hPa NNW 14mph /  22.5km/h 23mph /  37km/h 88% 0in /  0mm 0.00 W/m2
20:05 29.4 °F /  -1.4 °C 26.3 °F /  -3.2 °C 30.20in /  1022.6hPa NNW 15mph /  24.1km/h 23mph /  37km/h 88% 0in /  0mm 0.00 W/m2
20:10 29.3 °F /  -1.5 °C 26.2 °F /  -3.2 °C 30.19in /  1022.2hPa North 15mph /  24.1km/h 23mph /  37km/h 88% 0in /  0mm 0.00 W/m2
20:15 29.1 °F /  -1.6 °C 26 °F /  -3.3 °C 30.19in /  1022.2hPa NNW 20mph /  32.2km/h 23mph /  37km/h 88% 0in /  0mm 0.00 W/m2
20:20 28.9 °F /  -1.7 °C 25.8 °F /  -3.4 °C 30.20in /  1022.6hPa NNW 16mph /  25.7km/h 22mph /  35.4km/h 88% 0in /  0mm 0.00 W/m2
20:25 28.7 °F /  -1.8 °C 25.3 °F /  -3.7 °C 30.20in /  1022.6hPa NNW 14mph /  22.5km/h 20mph /  32.2km/h 87% 0in /  0mm 0.00 W/m2
20:30 28.5 °F /  -1.9 °C 25.1 °F /  -3.8 °C 30.20in /  1022.6hPa NNW 20mph /  32.2km/h 25mph /  40.2km/h 87% 0in /  0mm 0.00 W/m2
20:35 28.2 °F /  -2.1 °C 25.1 °F /  -3.8 °C 30.20in /  1022.6hPa NNW 13mph /  20.9km/h 25mph /  40.2km/h 88% 0in /  0mm 0.00 W/m2
20:40 27.8 °F /  -2.3 °C 24.2 °F /  -4.3 °C 30.20in /  1022.6hPa NNW 20mph /  32.2km/h 28mph /  45.1km/h 86% 0in /  0mm 0.00 W/m2
20:45 27.4 °F /  -2.6 °C 23.5 °F /  -4.7 °C 30.20in /  1022.6hPa North 22mph /  35.4km/h 28mph /  45.1km/h 85% 0in /  0mm 0.00 W/m2
20:50 27.1 °F /  -2.7 °C 23.2 °F /  -4.9 °C 30.21in /  1022.9hPa North 18mph /  29km/h 28mph /  45.1km/h 85% 0in /  0mm 0.00 W/m2
20:55 26.8 °F /  -2.9 °C 22.6 °F /  -5.2 °C 30.21in /  1022.9hPa NNW 18mph /  29km/h 26mph /  41.8km/h 84% 0in /  0mm 0.00 W/m2
21:00 26.5 °F /  -3.1 °C 22.3 °F /  -5.4 °C 30.21in /  1022.9hPa North 14mph /  22.5km/h 26mph /  41.8km/h 84% 0in /  0mm 0.00 W/m2
21:05 26.3 °F /  -3.2 °C 22.1 °F /  -5.5 °C 30.22in /  1023.2hPa NNW 15mph /  24.1km/h 26mph /  41.8km/h 84% 0in /  0mm 0.00 W/m2
21:10 26.2 °F /  -3.2 °C 22 °F /  -5.6 °C 30.23in /  1023.6hPa NNW 12mph /  19.3km/h 26mph /  41.8km/h 84% 0in /  0mm 0.00 W/m2
21:15 26 °F /  -3.3 °C 21.8 °F /  -5.7 °C 30.25in /  1024.3hPa NNW 15mph /  24.1km/h 24mph /  38.6km/h 84% 0in /  0mm 0.00 W/m2
21:20 25.8 °F /  -3.4 °C 21.9 °F /  -5.6 °C 30.26in /  1024.6hPa NNW 16mph /  25.7km/h 24mph /  38.6km/h 85% 0in /  0mm 0.00 W/m2
21:25 25.7 °F /  -3.5 °C 21.8 °F /  -5.7 °C 30.26in /  1024.6hPa NW 14mph /  22.5km/h 24mph /  38.6km/h 85% 0in /  0mm 0.00 W/m2
21:30 25.7 °F /  -3.5 °C 22.1 °F /  -5.5 °C 30.27in /  1024.9hPa NW 15mph /  24.1km/h 23mph /  37km/h 86% 0in /  0mm 0.00 W/m2
21:35 25.6 °F /  -3.6 °C 22 °F /  -5.6 °C 30.27in /  1024.9hPa NNW 11mph /  17.7km/h 23mph /  37km/h 86% 0in /  0mm 0.00 W/m2
21:40 25.4 °F /  -3.7 °C 21.8 °F /  -5.7 °C 30.27in /  1024.9hPa NNW 16mph /  25.7km/h 23mph /  37km/h 86% 0in /  0mm 0.00 W/m2
21:45 25.1 °F /  -3.8 °C 20.9 °F /  -6.2 °C 30.28in /  1025.3hPa NW 13mph /  20.9km/h 23mph /  37km/h 84% 0in /  0mm 0.00 W/m2
21:50 24.9 °F /  -3.9 °C 20.5 °F /  -6.4 °C 30.28in /  1025.3hPa North 17mph /  27.4km/h 20mph /  32.2km/h 83% 0in /  0mm 0.00 W/m2
21:55 24.8 °F /  -4 °C 20.4 °F /  -6.4 °C 30.28in /  1025.3hPa NW 13mph /  20.9km/h 21mph /  33.8km/h 83% 0in /  0mm 0.00 W/m2
22:00 24.7 °F /  -4.1 °C 20.6 °F /  -6.3 °C 30.28in /  1025.3hPa NW 15mph /  24.1km/h 21mph /  33.8km/h 84% 0in /  0mm 0.00 W/m2
22:05 24.6 °F /  -4.1 °C 20.5 °F /  -6.4 °C 30.28in /  1025.3hPa NNW 17mph /  27.4km/h 20mph /  32.2km/h 84% 0in /  0mm 0.00 W/m2
22:10 24.6 °F /  -4.1 °C 20.5 °F /  -6.4 °C 30.27in /  1024.9hPa NNW 13mph /  20.9km/h 20mph /  32.2km/h 84% 0in /  0mm 0.00 W/m2
22:15 24.5 °F /  -4.2 °C 20.6 °F /  -6.3 °C 30.28in /  1025.3hPa NW 12mph /  19.3km/h 20mph /  32.2km/h 85% 0in /  0mm 0.00 W/m2
22:20 24.4 °F /  -4.2 °C 20.3 °F /  -6.5 °C 30.29in /  1025.6hPa NNW 11mph /  17.7km/h 20mph /  32.2km/h 84% 0in /  0mm 0.00 W/m2
22:25 24 °F /  -4.4 °C 19 °F /  -7.2 °C 30.29in /  1025.6hPa NW 20mph /  32.2km/h 23mph /  37km/h 81% 0in /  0mm 0.00 W/m2
22:30 23.7 °F /  -4.6 °C 17.8 °F /  -7.9 °C 30.29in /  1025.6hPa NNW 21mph /  33.8km/h 23mph /  37km/h 78% 0in /  0mm 0.00 W/m2
22:35 23.6 °F /  -4.7 °C 17.7 °F /  -7.9 °C 30.29in /  1025.6hPa North 10mph /  16.1km/h 23mph /  37km/h 78% 0in /  0mm 0.00 W/m2
22:40 23.6 °F /  -4.7 °C 18 °F /  -7.8 °C 30.29in /  1025.6hPa NNW 16mph /  25.7km/h 21mph /  33.8km/h 79% 0in /  0mm 0.00 W/m2
22:45 23.5 °F /  -4.7 °C 18.2 °F /  -7.7 °C 30.29in /  1025.6hPa NNW 21mph /  33.8km/h 24mph /  38.6km/h 80% 0in /  0mm 0.00 W/m2
22:50 23.3 °F /  -4.8 °C 18.3 °F /  -7.6 °C 30.29in /  1025.6hPa NNW 14mph /  22.5km/h 24mph /  38.6km/h 81% 0in /  0mm 0.00 W/m2
22:55 23 °F /  -5 °C 18 °F /  -7.8 °C 30.29in /  1025.6hPa NNW 18mph /  29km/h 24mph /  38.6km/h 81% 0in /  0mm 0.00 W/m2
23:00 22.6 °F /  -5.2 °C 17.4 °F /  -8.1 °C 30.28in /  1025.3hPa NNW 20mph /  32.2km/h 24mph /  38.6km/h 80% 0in /  0mm 0.00 W/m2
23:05 22.4 °F /  -5.3 °C 17.5 °F /  -8.1 °C 30.28in /  1025.3hPa NW 17mph /  27.4km/h 24mph /  38.6km/h 81% 0in /  0mm 0.00 W/m2
23:10 22.2 °F /  -5.4 °C 17.3 °F /  -8.2 °C 30.29in /  1025.6hPa NNW 19mph /  30.6km/h 24mph /  38.6km/h 81% 0in /  0mm 0.00 W/m2
23:15 22 °F /  -5.6 °C 17.1 °F /  -8.3 °C 30.28in /  1025.3hPa NNW 17mph /  27.4km/h 24mph /  38.6km/h 81% 0in /  0mm 0.00 W/m2
23:20 21.9 °F /  -5.6 °C 17 °F /  -8.3 °C 30.28in /  1025.3hPa NNW 13mph /  20.9km/h 22mph /  35.4km/h 81% 0in /  0mm 0.00 W/m2
23:25 21.8 °F /  -5.7 °C 16.9 °F /  -8.4 °C 30.29in /  1025.6hPa NW 14mph /  22.5km/h 22mph /  35.4km/h 81% 0in /  0mm 0.00 W/m2
23:30 21.7 °F /  -5.7 °C 16.8 °F /  -8.4 °C 30.29in /  1025.6hPa NW 17mph /  27.4km/h 22mph /  35.4km/h 81% 0in /  0mm 0.00 W/m2
23:35 21.6 °F /  -5.8 °C 16.4 °F /  -8.7 °C 30.29in /  1025.6hPa NNW 15mph /  24.1km/h 23mph /  37km/h 80% 0in /  0mm 0.00 W/m2
23:40 21.6 °F /  -5.8 °C 16.1 °F /  -8.8 °C 30.30in /  1026hPa NNW 20mph /  32.2km/h 24mph /  38.6km/h 79% 0in /  0mm 0.00 W/m2
23:45 21.5 °F /  -5.8 °C 16 °F /  -8.9 °C 30.30in /  1026hPa NNW 19mph /  30.6km/h 24mph /  38.6km/h 79% 0in /  0mm 0.00 W/m2
23:50 21.5 °F /  -5.8 °C 15.1 °F /  -9.4 °C 30.30in /  1026hPa NNW 20mph /  32.2km/h 24mph /  38.6km/h 76% 0in /  0mm 0.00 W/m2
23:55 21.5 °F /  -5.8 °C 14.8 °F /  -9.6 °C 30.31in /  1026.3hPa NNW 12mph /  19.3km/h 26mph /  41.8km/h 75% 0in /  0mm 0.00 W/m2
Bismarck, North Dakota, USA
Compliments of Weather Underground - 4 mb